createdAt,value
2023-02-12T00:01:04.348Z,1004.3
2023-02-12T00:03:05.396Z,1004.3
2023-02-12T00:05:06.938Z,1004.3
2023-02-12T00:07:08.059Z,1004.2
2023-02-12T00:09:09.566Z,1004.3
2023-02-12T00:11:11.266Z,1004.3
2023-02-12T00:13:12.344Z,1004.4
2023-02-12T00:15:13.748Z,1004.4
2023-02-12T00:17:14.823Z,1004.4
2023-02-12T00:19:16.229Z,1004.4
2023-02-12T00:21:17.498Z,1004.3
2023-02-12T00:23:18.513Z,1004.3
2023-02-12T00:25:20.167Z,1004.2
2023-02-12T00:27:21.875Z,1004.3
2023-02-12T00:29:23.758Z,1004.2
2023-02-12T00:31:25.917Z,1004.2
2023-02-12T00:33:26.748Z,1004.2
2023-02-12T00:37:29.335Z,1004.3
2023-02-12T00:39:30.387Z,1004.3
2023-02-12T00:41:31.456Z,1004.4
2023-02-12T00:43:32.883Z,1004.3
2023-02-12T00:45:34.468Z,1004.2
2023-02-12T00:47:36.187Z,1004.3
2023-02-12T00:49:37.312Z,1004.3
2023-02-12T00:51:39.032Z,1004.3
2023-02-12T00:53:40.734Z,1004.3
2023-02-12T00:55:42.057Z,1004.4
2023-02-12T00:57:43.428Z,1004.4
2023-02-12T00:59:44.614Z,1004.4
2023-02-12T01:01:45.717Z,1004.4
2023-02-12T01:03:46.723Z,1004.3
2023-02-12T01:05:48.197Z,1004.4
2023-02-12T01:07:50.174Z,1004.4
2023-02-12T01:09:51.842Z,1004.4
2023-02-12T01:11:52.959Z,1004.4
2023-02-12T01:13:54.387Z,1004.5
2023-02-12T01:15:56.327Z,1004.4
2023-02-12T01:17:57.545Z,1004.4
2023-02-12T01:19:59.097Z,1004.4
2023-02-12T01:22:00.643Z,1004.3
2023-02-12T01:24:02.242Z,1004.4
2023-02-12T01:26:03.477Z,1004.4
2023-02-12T01:28:05.122Z,1004.3
2023-02-12T01:30:06.656Z,1004.4
2023-02-12T01:32:07.830Z,1004.4
2023-02-12T01:34:09.293Z,1004.3
2023-02-12T01:36:11.203Z,1004.3
2023-02-12T01:38:12.834Z,1004.3
2023-02-12T01:40:14.693Z,1004.1
2023-02-12T01:42:16.352Z,1004.3
2023-02-12T01:44:18.189Z,1004.1
2023-02-12T01:46:19.962Z,1004.1
2023-02-12T01:48:21.092Z,1004.1
2023-02-12T01:50:22.776Z,1004.1
2023-02-12T01:52:24.423Z,1004.1
2023-02-12T01:54:25.869Z,1004.1
2023-02-12T01:56:27.185Z,1004.1
2023-02-12T01:58:28.551Z,1004.2
2023-02-12T02:00:29.617Z,1004.2
2023-02-12T02:02:31.316Z,1004.2
2023-02-12T02:04:32.986Z,1004.1
2023-02-12T02:06:34.118Z,1004.1
2023-02-12T02:08:35.292Z,1004.1
2023-02-12T02:10:37.236Z,1004.2
2023-02-12T02:12:39.035Z,1004.1
2023-02-12T02:14:40.925Z,1004.2
2023-02-12T02:16:41.957Z,1004.2
2023-02-12T02:18:43.459Z,1004.2
2023-02-12T02:20:45.392Z,1004.2
2023-02-12T02:22:47.176Z,1004.1
2023-02-12T02:23:31.080Z,1004.2
2023-02-12T02:25:32.120Z,1004.1
2023-02-12T02:27:33.437Z,1004.3
2023-02-12T02:29:34.440Z,1004.2
2023-02-12T02:31:36.209Z,1004.2
2023-02-12T02:33:38.017Z,1004.3
2023-02-12T02:35:39.678Z,1004.2
2023-02-12T02:39:42.688Z,1004.3
2023-02-12T02:41:44.292Z,1004.2
2023-02-12T02:43:46.161Z,1004.2
2023-02-12T02:45:47.319Z,1004.2
2023-02-12T02:49:50.150Z,1004.2
2023-02-12T02:51:52.057Z,1004.3
2023-02-12T02:53:54.057Z,1004.2
2023-02-12T02:55:56.276Z,1004.2
2023-02-12T02:57:57.670Z,1004.3
2023-02-12T02:59:59.244Z,1004.2
2023-02-12T03:02:00.464Z,1004.3
2023-02-12T03:04:01.980Z,1004.3
2023-02-12T03:06:03.146Z,1004.3
2023-02-12T03:08:04.562Z,1004.3
2023-02-12T03:10:05.800Z,1004.3
2023-02-12T03:12:07.633Z,1004.3
2023-02-12T03:14:08.677Z,1004.3
2023-02-12T03:16:10.536Z,1004.3
2023-02-12T03:18:11.805Z,1004.4
2023-02-12T03:20:13.464Z,1004.3
2023-02-12T03:22:15.089Z,1004.3
2023-02-12T03:24:16.291Z,1004.3
2023-02-12T03:26:17.471Z,1004.3
2023-02-12T03:28:18.695Z,1004.3
2023-02-12T03:30:19.638Z,1004.4
2023-02-12T03:32:20.785Z,1004.4
2023-02-12T03:34:22.003Z,1004.3
2023-02-12T03:38:25.049Z,1004.5
2023-02-12T03:40:26.587Z,1004.5
2023-02-12T03:42:28.314Z,1004.4
2023-02-12T03:44:29.829Z,1004.5
2023-02-12T03:46:31.750Z,1004.4
2023-02-12T03:48:33.434Z,1004.5
2023-02-12T03:50:34.455Z,1004.4
2023-02-12T03:52:35.784Z,1004.4
2023-02-12T03:54:36.811Z,1004.4
2023-02-12T03:56:38.577Z,1004.4
2023-02-12T03:58:40.529Z,1004.3
2023-02-12T04:00:42.389Z,1004.3
2023-02-12T04:02:43.731Z,1004.3
2023-02-12T04:04:45.285Z,1004.4
2023-02-12T04:06:47.143Z,1004.3
2023-02-12T04:08:48.870Z,1004.4
2023-02-12T04:10:50.075Z,1004.5
2023-02-12T04:12:51.590Z,1004.4
2023-02-12T04:14:52.726Z,1004.4
2023-02-12T04:16:54.359Z,1004.5
2023-02-12T04:18:55.830Z,1004.6
2023-02-12T04:20:57.161Z,1004.5
2023-02-12T04:22:59.041Z,1004.5
2023-02-12T04:25:01.023Z,1004.4
2023-02-12T04:27:02.489Z,1004.5
2023-02-12T04:29:03.994Z,1004.5
2023-02-12T04:31:05.586Z,1004.4
2023-02-12T04:33:06.894Z,1004.4
2023-02-12T04:37:10.624Z,1004.6
2023-02-12T04:39:12.312Z,1004.5
2023-02-12T04:41:13.457Z,1004.5
2023-02-12T04:43:15.309Z,1004.5
2023-02-12T04:45:16.906Z,1004.5
2023-02-12T04:47:18.630Z,1004.5
2023-02-12T04:49:19.662Z,1004.5
2023-02-12T04:51:21.154Z,1004.6
2023-02-12T04:53:22.654Z,1004.6
2023-02-12T04:55:24.281Z,1004.6
2023-02-12T04:57:25.606Z,1004.5
2023-02-12T04:59:27.207Z,1004.6
2023-02-12T05:01:31.243Z,1004.6
2023-02-12T05:03:30.501Z,1004.6
2023-02-12T05:05:31.762Z,1004.5
2023-02-12T05:07:33.251Z,1004.5
2023-02-12T05:09:35.010Z,1004.5
2023-02-12T05:11:36.089Z,1004.5
2023-02-12T05:13:37.227Z,1004.5
2023-02-12T05:15:38.759Z,1004.6
2023-02-12T05:19:42.485Z,1004.7
2023-02-12T05:21:43.915Z,1004.6
2023-02-12T05:23:45.537Z,1004.6
2023-02-12T05:25:47.408Z,1004.6
2023-02-12T05:27:49.030Z,1004.6
2023-02-12T05:29:50.412Z,1004.7
2023-02-12T05:31:51.631Z,1004.7
2023-02-12T05:33:52.580Z,1004.8
2023-02-12T05:35:54.621Z,1004.7
2023-02-12T05:37:56.353Z,1004.6
2023-02-12T05:39:57.783Z,1004.7
2023-02-12T05:41:58.842Z,1004.7
2023-02-12T05:44:00.802Z,1004.7
2023-02-12T05:46:02.617Z,1004.7
2023-02-12T05:48:04.369Z,1004.8
2023-02-12T05:50:06.015Z,1004.7
2023-02-12T05:52:07.770Z,1004.7
2023-02-12T05:54:08.847Z,1004.7
2023-02-12T05:56:10.030Z,1004.8
2023-02-12T05:58:12.919Z,1004.7
2023-02-12T06:00:12.918Z,1004.7
2023-02-12T06:02:14.370Z,1004.7
2023-02-12T06:04:15.360Z,1004.7
2023-02-12T06:06:17.194Z,1004.7
2023-02-12T06:08:18.654Z,1004.7
2023-02-12T06:10:20.148Z,1004.7
2023-02-12T06:12:21.261Z,1004.6
2023-02-12T06:14:23.037Z,1004.6
2023-02-12T06:16:23.945Z,1004.6
2023-02-12T06:18:25.706Z,1004.7
2023-02-12T06:20:27.497Z,1004.7
2023-02-12T06:22:29.358Z,1004.7
2023-02-12T06:24:31.219Z,1004.7
2023-02-12T06:28:34.725Z,1004.8
2023-02-12T06:30:36.041Z,1004.8
2023-02-12T06:32:37.525Z,1004.8
2023-02-12T06:34:39.162Z,1004.9
2023-02-12T06:36:41.134Z,1004.8
2023-02-12T06:38:42.539Z,1004.9
2023-02-12T06:40:44.223Z,1004.9
2023-02-12T06:42:45.508Z,1005
2023-02-12T06:44:46.604Z,1004.9
2023-02-12T06:46:48.449Z,1005
2023-02-12T06:48:49.406Z,1005
2023-02-12T06:50:51.302Z,1004.9
2023-02-12T06:52:53.094Z,1005
2023-02-12T06:54:54.909Z,1005.1
2023-02-12T06:56:55.950Z,1005.2
2023-02-12T06:58:57.258Z,1005.2
2023-02-12T07:00:58.403Z,1005.1
2023-02-12T07:02:59.629Z,1005.2
2023-02-12T07:05:00.669Z,1005.2
2023-02-12T07:07:01.928Z,1005.2
2023-02-12T07:11:05.173Z,1005.3
2023-02-12T07:13:06.573Z,1005.4
2023-02-12T07:15:07.769Z,1005.3
2023-02-12T07:17:09.336Z,1005.3
2023-02-12T07:21:12.555Z,1005.4
2023-02-12T07:23:13.601Z,1005.3
2023-02-12T07:25:15.549Z,1005.4
2023-02-12T07:27:17.029Z,1005.3
2023-02-12T07:29:18.237Z,1005.3
2023-02-12T07:31:20.013Z,1005.4
2023-02-12T07:33:21.506Z,1005.4
2023-02-12T07:35:23.139Z,1005.5
2023-02-12T07:37:24.616Z,1005.4
2023-02-12T07:39:26.169Z,1005.5
2023-02-12T07:41:27.357Z,1005.5
2023-02-12T07:43:28.570Z,1005.5
2023-02-12T07:45:29.614Z,1005.4
2023-02-12T07:47:31.117Z,1005.4
2023-02-12T07:49:32.844Z,1005.4
2023-02-12T07:51:34.457Z,1005.5
2023-02-12T07:53:36.100Z,1005.5
2023-02-12T07:55:37.085Z,1005.5
2023-02-12T07:57:38.320Z,1005.5
2023-02-12T07:59:40.128Z,1005.5
2023-02-12T08:01:41.662Z,1005.5
2023-02-12T08:03:42.890Z,1005.5
2023-02-12T08:05:44.752Z,1005.5
2023-02-12T08:09:48.485Z,1005.6
2023-02-12T08:11:49.882Z,1005.5
2023-02-12T08:13:51.799Z,1005.5
2023-02-12T08:15:53.934Z,1005.5
2023-02-12T08:17:54.938Z,1005.5
2023-02-12T08:19:56.286Z,1005.5
2023-02-12T08:21:57.852Z,1005.5
2023-02-12T08:23:59.027Z,1005.6
2023-02-12T08:26:00.008Z,1005.6
2023-02-12T08:28:01.302Z,1005.5
2023-02-12T08:30:02.970Z,1005.6
2023-02-12T08:32:04.410Z,1005.6
2023-02-12T08:34:05.391Z,1005.6
2023-02-12T08:36:06.678Z,1005.6
2023-02-12T08:38:07.923Z,1005.6
2023-02-12T08:40:09.340Z,1005.6
2023-02-12T08:42:10.814Z,1005.5
2023-02-12T08:44:11.894Z,1005.7
2023-02-12T08:46:13.739Z,1005.6
2023-02-12T08:48:15.165Z,1005.6
2023-02-12T08:50:16.366Z,1005.6
2023-02-12T08:52:18.049Z,1005.5
2023-02-12T08:54:19.146Z,1005.4
2023-02-12T08:56:20.870Z,1005.5
2023-02-12T08:58:22.251Z,1005.4
2023-02-12T09:00:23.289Z,1005.5
2023-02-12T09:02:24.720Z,1005.5
2023-02-12T09:04:25.973Z,1005.5
2023-02-12T09:08:28.978Z,1005.5
2023-02-12T09:09:12.821Z,1005.5
2023-02-12T09:13:15.540Z,1005.6
2023-02-12T09:15:17.078Z,1005.5
2023-02-12T09:17:18.254Z,1005.5
2023-02-12T09:19:19.576Z,1005.5
2023-02-12T09:21:21.259Z,1005.6
2023-02-12T09:23:22.890Z,1005.5
2023-02-12T09:25:24.330Z,1005.6
2023-02-12T09:29:26.606Z,1005.5
2023-02-12T09:31:28.486Z,1005.6
2023-02-12T09:33:29.483Z,1005.6
2023-02-12T09:35:31.100Z,1005.6
2023-02-12T09:39:33.788Z,1005.6
2023-02-12T09:41:35.511Z,1005.6
2023-02-12T09:43:36.734Z,1005.5
2023-02-12T09:45:37.964Z,1005.6
2023-02-12T09:47:39.557Z,1005.7
2023-02-12T09:49:40.684Z,1005.4
2023-02-12T09:51:41.820Z,1005.5
2023-02-12T09:53:43.553Z,1005.5
2023-02-12T09:55:45.757Z,1005.6
2023-02-12T09:57:46.727Z,1005.5
2023-02-12T09:59:48.550Z,1005.5
2023-02-12T10:01:50.351Z,1005.5
2023-02-12T10:03:52.133Z,1005.4
2023-02-12T10:05:53.366Z,1005.5
2023-02-12T10:07:54.064Z,1005.4
2023-02-12T10:09:55.431Z,1005.5
2023-02-12T10:11:56.607Z,1005.5
2023-02-12T10:13:58.716Z,1005.5
2023-02-12T10:16:00.221Z,1005.5
2023-02-12T10:18:01.826Z,1005.4
2023-02-12T10:22:04.463Z,1005.5
2023-02-12T10:24:06.137Z,1005.5
2023-02-12T10:26:07.827Z,1005.3
2023-02-12T10:28:09.100Z,1005.5
2023-02-12T10:30:10.737Z,1005.4
2023-02-12T10:32:11.720Z,1005.4
2023-02-12T10:34:13.063Z,1005.5
2023-02-12T10:36:14.196Z,1005.3
2023-02-12T10:38:15.825Z,1005.4
2023-02-12T10:40:16.860Z,1005.4
2023-02-12T10:42:18.666Z,1005.4
2023-02-12T10:44:21.188Z,1005.3
2023-02-12T10:46:22.595Z,1005.4
2023-02-12T10:48:24.536Z,1005.3
2023-02-12T10:50:25.602Z,1005.4
2023-02-12T10:52:27.134Z,1005.3
2023-02-12T10:54:28.347Z,1005.4
2023-02-12T10:56:29.560Z,1005.3
2023-02-12T10:58:31.143Z,1005.1
2023-02-12T11:00:32.094Z,1005.2
2023-02-12T11:02:33.313Z,1005.2
2023-02-12T11:04:34.465Z,1005.3
2023-02-12T11:06:35.811Z,1005.2
2023-02-12T11:08:36.813Z,1005.1
2023-02-12T11:10:38.353Z,1005.1
2023-02-12T11:12:39.464Z,1005.1
2023-02-12T11:14:40.810Z,1005.1
2023-02-12T11:16:42.385Z,1005
2023-02-12T11:18:44.391Z,1005
2023-02-12T11:20:45.493Z,1005
2023-02-12T11:22:46.852Z,1005.1
2023-02-12T11:24:48.241Z,1005
2023-02-12T11:26:50.070Z,1005.1
2023-02-12T11:28:51.594Z,1005.1
2023-02-12T11:30:52.928Z,1005
2023-02-12T11:32:54.522Z,1005
2023-02-12T11:34:56.354Z,1005
2023-02-12T11:36:57.305Z,1005
2023-02-12T11:38:59.091Z,1005
2023-02-12T11:43:02.394Z,1004.9
2023-02-12T11:45:04.039Z,1005
2023-02-12T11:47:05.343Z,1005
2023-02-12T11:49:06.484Z,1004.9
2023-02-12T11:51:08.032Z,1005
2023-02-12T11:53:09.680Z,1005
2023-02-12T11:55:20.322Z,1005
2023-02-12T11:57:12.749Z,1005
2023-02-12T11:59:13.937Z,1005
2023-02-12T12:01:17.436Z,1005
2023-02-12T12:03:17.376Z,1005
2023-02-12T12:05:18.633Z,1005
2023-02-12T12:07:20.033Z,1004.8
2023-02-12T12:09:21.200Z,1005
2023-02-12T12:11:22.977Z,1004.9
2023-02-12T12:13:25.916Z,1004.9
2023-02-12T12:15:25.480Z,1004.8
2023-02-12T12:17:27.176Z,1004.9
2023-02-12T12:19:29.116Z,1004.8
2023-02-12T12:21:30.405Z,1004.9
2023-02-12T12:23:32.065Z,1004.9
2023-02-12T12:25:33.410Z,1004.8
2023-02-12T12:27:34.678Z,1004.9
2023-02-12T12:29:35.852Z,1004.8
2023-02-12T12:31:37.379Z,1004.8
2023-02-12T12:33:38.285Z,1004.8
2023-02-12T12:35:39.469Z,1004.7
2023-02-12T12:37:40.764Z,1004.7
2023-02-12T12:41:43.643Z,1004.7
2023-02-12T12:43:45.332Z,1004.7
2023-02-12T12:45:47.366Z,1004.8
2023-02-12T12:47:49.341Z,1004.7
2023-02-12T12:49:51.058Z,1004.7
2023-02-12T12:51:52.429Z,1004.7
2023-02-12T12:53:53.609Z,1004.7
2023-02-12T12:55:55.251Z,1004.6
2023-02-12T12:57:57.335Z,1004.6
2023-02-12T12:59:58.579Z,1004.6
2023-02-12T13:01:59.907Z,1004.4
2023-02-12T13:04:01.409Z,1004.6
2023-02-12T13:06:02.421Z,1004.5
2023-02-12T13:08:04.079Z,1004.5
2023-02-12T13:10:05.063Z,1004.6
2023-02-12T13:12:06.657Z,1004.6
2023-02-12T13:14:08.004Z,1004.6
2023-02-12T13:16:09.676Z,1004.5
2023-02-12T13:18:10.877Z,1004.6
2023-02-12T13:20:11.820Z,1004.5
2023-02-12T13:22:13.298Z,1004.5
2023-02-12T13:24:14.653Z,1004.5
2023-02-12T13:26:16.670Z,1004.5
2023-02-12T13:28:18.175Z,1004.5
2023-02-12T13:30:19.238Z,1004.5
2023-02-12T13:32:20.225Z,1004.5
2023-02-12T13:34:21.106Z,1004.6
2023-02-12T13:36:22.377Z,1004.6
2023-02-12T13:38:24.097Z,1004.6
2023-02-12T13:40:25.884Z,1004.5
2023-02-12T13:42:27.126Z,1004.5
2023-02-12T13:44:28.346Z,1004.6
2023-02-12T13:46:29.467Z,1004.6
2023-02-12T13:50:32.250Z,1004.7
2023-02-12T13:52:33.924Z,1004.5
2023-02-12T13:54:35.245Z,1004.5
2023-02-12T13:56:36.609Z,1004.5
2023-02-12T13:58:37.844Z,1004.5
2023-02-12T14:00:39.190Z,1004.5
2023-02-12T14:02:41.432Z,1004.4
2023-02-12T14:06:43.783Z,1004.4
2023-02-12T14:08:45.078Z,1004.5
2023-02-12T14:10:46.832Z,1004.4
2023-02-12T14:12:47.825Z,1004.5
2023-02-12T14:14:49.240Z,1004.3
2023-02-12T14:16:50.995Z,1004.5
2023-02-12T14:18:52.728Z,1004.5
2023-02-12T14:20:54.431Z,1004.4
2023-02-12T14:22:56.047Z,1004.4
2023-02-12T14:24:57.403Z,1004.3
2023-02-12T14:26:59.126Z,1004.4
2023-02-12T14:29:00.338Z,1004.3
2023-02-12T14:31:01.742Z,1004.3
2023-02-12T14:33:03.164Z,1004.3
2023-02-12T14:35:04.515Z,1004.3
2023-02-12T14:37:06.312Z,1004.3
2023-02-12T14:39:07.815Z,1004.3
2023-02-12T14:41:09.691Z,1004.2
2023-02-12T14:43:11.092Z,1004.3
2023-02-12T14:45:12.447Z,1004.3
2023-02-12T14:49:15.424Z,1004.2
2023-02-12T14:51:16.723Z,1004.3
2023-02-12T14:53:18.000Z,1004.3
2023-02-12T14:55:18.869Z,1004.3
2023-02-12T14:57:20.264Z,1004.3
2023-02-12T14:59:21.247Z,1004.2
2023-02-12T15:01:22.817Z,1004.2
2023-02-12T15:03:24.264Z,1004.1
2023-02-12T15:05:25.986Z,1004.1
2023-02-12T15:07:27.057Z,1004.2
2023-02-12T15:09:28.079Z,1004.2
2023-02-12T15:11:29.159Z,1004.1
2023-02-12T15:13:30.612Z,1004.2
2023-02-12T15:15:32.171Z,1004.2
2023-02-12T15:17:33.600Z,1004.2
2023-02-12T15:19:34.817Z,1004.2
2023-02-12T15:21:36.070Z,1004.2
2023-02-12T15:23:37.057Z,1004.3
2023-02-12T15:25:38.250Z,1004.1
2023-02-12T15:27:40.103Z,1004.2
2023-02-12T15:29:41.625Z,1004.2
2023-02-12T15:31:42.923Z,1004
2023-02-12T15:33:44.399Z,1004.1
2023-02-12T15:35:46.248Z,1004.1
2023-02-12T15:37:47.363Z,1004.2
2023-02-12T15:39:48.393Z,1004.1
2023-02-12T15:41:49.362Z,1004.2
2023-02-12T15:43:50.995Z,1004.1
2023-02-12T15:45:52.933Z,1004.2
2023-02-12T15:47:54.391Z,1004.2
2023-02-12T15:49:56.181Z,1004.2
2023-02-12T15:51:57.212Z,1004.2
2023-02-12T15:53:58.231Z,1004.2
2023-02-12T15:56:43.399Z,1004.2
2023-02-12T15:58:44.890Z,1004.2
2023-02-12T16:00:46.681Z,1004.3
2023-02-12T16:02:48.257Z,1004.3
2023-02-12T16:04:49.226Z,1004.2
2023-02-12T16:08:52.216Z,1004.2
2023-02-12T16:10:53.982Z,1004.2
2023-02-12T16:12:55.502Z,1004.2
2023-02-12T16:14:56.833Z,1004.2
2023-02-12T16:19:00.396Z,1004.2
2023-02-12T16:21:01.648Z,1004.2
2023-02-12T16:23:03.988Z,1004.2
2023-02-12T16:25:04.625Z,1004.3
2023-02-12T16:27:06.524Z,1004.3
2023-02-12T16:29:07.770Z,1004.3
2023-02-12T16:31:09.129Z,1004.3
2023-02-12T16:33:10.176Z,1004.3
2023-02-12T16:35:11.728Z,1004.2
2023-02-12T16:37:12.736Z,1004.4
2023-02-12T16:39:14.681Z,1004.4
2023-02-12T16:41:15.714Z,1004.4
2023-02-12T16:43:17.589Z,1004.3
2023-02-12T16:45:18.735Z,1004.3
2023-02-12T16:47:20.060Z,1004.4
2023-02-12T16:49:21.670Z,1004.5
2023-02-12T16:51:23.049Z,1004.3
2023-02-12T16:53:24.177Z,1004.5
2023-02-12T16:55:25.434Z,1004.5
2023-02-12T16:57:27.187Z,1004.5
2023-02-12T16:59:28.221Z,1004.5
2023-02-12T17:01:29.694Z,1004.5
2023-02-12T17:03:31.355Z,1004.5
2023-02-12T17:07:34.014Z,1004.5
2023-02-12T17:09:35.839Z,1004.5
2023-02-12T17:11:37.493Z,1004.5
2023-02-12T17:13:38.808Z,1004.5
2023-02-12T17:15:39.875Z,1004.4
2023-02-12T17:17:40.936Z,1004.4
2023-02-12T17:19:42.354Z,1004.4
2023-02-12T17:23:44.612Z,1004.4
2023-02-12T17:25:45.829Z,1004.4
2023-02-12T17:27:47.080Z,1004.4
2023-02-12T17:29:48.401Z,1004.4
2023-02-12T17:31:50.298Z,1004.4
2023-02-12T17:33:51.724Z,1004.5
2023-02-12T17:35:52.701Z,1004.4
2023-02-12T17:37:53.851Z,1004.5
2023-02-12T17:39:54.845Z,1004.6
2023-02-12T17:41:56.604Z,1004.5
2023-02-12T17:43:58.164Z,1004.6
2023-02-12T17:45:59.649Z,1004.5
2023-02-12T17:50:01.842Z,1004.6
2023-02-12T17:52:05.806Z,1004.6
2023-02-12T17:54:04.781Z,1004.7
2023-02-12T17:56:06.599Z,1004.7
2023-02-12T17:58:08.171Z,1004.7
2023-02-12T18:00:09.197Z,1004.8
2023-02-12T18:02:10.747Z,1004.7
2023-02-12T18:04:12.667Z,1004.8
2023-02-12T18:06:13.967Z,1004.9
2023-02-12T18:08:15.034Z,1004.7
2023-02-12T18:10:16.437Z,1004.8
2023-02-12T18:12:18.443Z,1004.7
2023-02-12T18:14:20.104Z,1004.7
2023-02-12T18:16:21.331Z,1004.8
2023-02-12T18:18:22.495Z,1004.8
2023-02-12T18:20:24.295Z,1004.8
2023-02-12T18:22:25.610Z,1004.9
2023-02-12T18:24:27.542Z,1004.8
2023-02-12T18:26:28.960Z,1004.9
2023-02-12T18:28:30.198Z,1004.9
2023-02-12T18:32:33.414Z,1004.9
2023-02-12T18:34:34.954Z,1004.9
2023-02-12T18:36:35.940Z,1004.8
2023-02-12T18:38:37.762Z,1004.9
2023-02-12T18:42:40.783Z,1004.9
2023-02-12T18:44:42.129Z,1004.9
2023-02-12T18:48:45.112Z,1004.8
2023-02-12T18:50:46.837Z,1004.9
2023-02-12T18:52:48.684Z,1004.9
2023-02-12T18:54:50.619Z,1004.8
2023-02-12T18:56:52.382Z,1004.8
2023-02-12T18:58:53.874Z,1005
2023-02-12T19:00:55.773Z,1004.9
2023-02-12T19:02:56.487Z,1004.9
2023-02-12T19:04:58.247Z,1005
2023-02-12T19:06:59.306Z,1004.9
2023-02-12T19:09:00.476Z,1004.8
2023-02-12T19:11:01.513Z,1004.9
2023-02-12T19:13:02.709Z,1005
2023-02-12T19:15:04.334Z,1005
2023-02-12T19:17:06.303Z,1005
2023-02-12T19:19:08.042Z,1004.9
2023-02-12T19:21:09.255Z,1004.9
2023-02-12T19:23:19.387Z,1004.9
2023-02-12T19:25:11.533Z,1004.9
2023-02-12T19:27:13.179Z,1004.9
2023-02-12T19:31:16.017Z,1005
2023-02-12T19:33:17.105Z,1005
2023-02-12T19:35:19.051Z,1005
2023-02-12T19:37:20.917Z,1005
2023-02-12T19:39:22.137Z,1005
2023-02-12T19:41:23.159Z,1004.9
2023-02-12T19:43:24.197Z,1004.9
2023-02-12T19:47:27.932Z,1005
2023-02-12T19:49:29.237Z,1004.9
2023-02-12T19:51:31.071Z,1004.9
2023-02-12T19:53:32.096Z,1004.9
2023-02-12T19:55:33.772Z,1004.9
2023-02-12T19:57:35.557Z,1004.9
2023-02-12T19:59:37.085Z,1004.9
2023-02-12T20:01:38.847Z,1004.9
2023-02-12T20:03:40.603Z,1004.9
2023-02-12T20:05:41.910Z,1005
2023-02-12T20:07:43.285Z,1005
2023-02-12T20:09:45.135Z,1004.9
2023-02-12T20:13:48.820Z,1004.9
2023-02-12T20:15:50.153Z,1005
2023-02-12T20:17:52.025Z,1005
2023-02-12T20:19:53.851Z,1005
2023-02-12T20:21:55.724Z,1004.9
2023-02-12T20:23:57.319Z,1005.1
2023-02-12T20:25:58.499Z,1005.1
2023-02-12T20:27:59.864Z,1005
2023-02-12T20:30:01.136Z,1005
2023-02-12T20:32:02.553Z,1005
2023-02-12T20:34:03.885Z,1005.1
2023-02-12T20:36:04.906Z,1005
2023-02-12T20:38:05.905Z,1005.1
2023-02-12T20:40:07.384Z,1005.1
2023-02-12T20:42:08.507Z,1005.2
2023-02-12T20:44:09.913Z,1005.2
2023-02-12T20:46:11.078Z,1005.2
2023-02-12T20:48:13.003Z,1005.1
2023-02-12T20:50:14.608Z,1005.2
2023-02-12T20:52:15.946Z,1005.1
2023-02-12T20:54:17.847Z,1005.2
2023-02-12T20:56:18.881Z,1005.2
2023-02-12T20:58:19.978Z,1005.2
2023-02-12T21:00:21.921Z,1005.2
2023-02-12T21:02:23.344Z,1005.2
2023-02-12T21:04:24.497Z,1005.2
2023-02-12T21:06:25.930Z,1005.2
2023-02-12T21:08:27.590Z,1005.2
2023-02-12T21:12:31.186Z,1005.2
2023-02-12T21:14:32.850Z,1005.3
2023-02-12T21:16:34.791Z,1005.3
2023-02-12T21:18:36.265Z,1005.4
2023-02-12T21:20:38.059Z,1005.3
2023-02-12T21:22:39.114Z,1005.3
2023-02-12T21:24:40.241Z,1005.3
2023-02-12T21:26:41.310Z,1005.3
2023-02-12T21:28:42.659Z,1005.3
2023-02-12T21:30:43.743Z,1005.3
2023-02-12T21:32:45.579Z,1005.3
2023-02-12T21:34:48.638Z,1005.3
2023-02-12T21:38:49.868Z,1005.2
2023-02-12T21:40:51.239Z,1005.3
2023-02-12T21:42:52.402Z,1005.3
2023-02-12T21:44:53.797Z,1005.1
2023-02-12T21:48:56.230Z,1005.2
2023-02-12T21:50:57.669Z,1005.3
2023-02-12T21:52:58.795Z,1005.2
2023-02-12T21:55:00.256Z,1005.2
2023-02-12T21:57:02.211Z,1005.2
2023-02-12T21:59:03.574Z,1005.2
2023-02-12T22:01:04.921Z,1005.2
2023-02-12T22:03:06.070Z,1005.2
2023-02-12T22:05:07.900Z,1005.2
2023-02-12T22:07:09.825Z,1005.3
2023-02-12T22:09:10.866Z,1005.2
2023-02-12T22:11:12.176Z,1005.2
2023-02-12T22:13:13.672Z,1005.1
2023-02-12T22:15:15.233Z,1005.2
2023-02-12T22:17:16.915Z,1005.2
2023-02-12T22:19:18.874Z,1005.2
2023-02-12T22:21:20.359Z,1005.3
2023-02-12T22:23:22.151Z,1005.3
2023-02-12T22:25:23.232Z,1005.3
2023-02-12T22:27:24.461Z,1005.2
2023-02-12T22:31:27.020Z,1005.2
2023-02-12T22:33:28.396Z,1005.3
2023-02-12T22:37:31.355Z,1005.2
2023-02-12T22:39:32.424Z,1005.2
2023-02-12T22:40:16.323Z,1005.3
2023-02-12T22:42:17.978Z,1005.2
2023-02-12T22:44:21.270Z,1005.2
2023-02-12T22:46:20.945Z,1005.2
2023-02-12T22:48:22.103Z,1005.3
2023-02-12T22:50:23.754Z,1005.3
2023-02-12T22:52:25.015Z,1005.2
2023-02-12T22:54:26.697Z,1005.2
2023-02-12T22:56:28.572Z,1005.2
2023-02-12T22:58:30.137Z,1005.3
2023-02-12T23:00:31.880Z,1005.2
2023-02-12T23:02:33.767Z,1005.1
2023-02-12T23:04:34.956Z,1005.2
2023-02-12T23:06:36.869Z,1005.1
2023-02-12T23:08:38.734Z,1005.1
2023-02-12T23:10:39.776Z,1005.3
2023-02-12T23:12:40.884Z,1005.2
2023-02-12T23:14:42.201Z,1005.2
2023-02-12T23:16:43.595Z,1005.1
2023-02-12T23:18:45.131Z,1005.2
2023-02-12T23:20:46.963Z,1005.2
2023-02-12T23:22:48.174Z,1005.1
2023-02-12T23:24:51.037Z,1005.3
2023-02-12T23:26:51.464Z,1005.2
2023-02-12T23:30:54.725Z,1005.2
2023-02-12T23:32:55.845Z,1005.2
2023-02-12T23:34:57.479Z,1005.2
2023-02-12T23:36:58.830Z,1005.2
2023-02-12T23:39:00.644Z,1005.3
2023-02-12T23:41:02.578Z,1005.2
2023-02-12T23:43:03.914Z,1005.2
2023-02-12T23:45:05.818Z,1005.2
2023-02-12T23:47:07.039Z,1005.1
2023-02-12T23:49:08.658Z,1005.2
2023-02-12T23:51:10.225Z,1005.1
2023-02-12T23:53:12.005Z,1005.2
2023-02-12T23:55:13.565Z,1005.1
2023-02-12T23:57:15.052Z,1005.2
2023-02-12T23:59:16.862Z,1005.1
